createdAt,value
2018-03-06T00:00:09.286Z,99.99
2018-03-06T00:01:20.925Z,99.99
2018-03-06T00:02:31.221Z,99.99
2018-03-06T00:03:41.295Z,99.99
2018-03-06T00:04:51.094Z,99.99
2018-03-06T00:06:01.148Z,99.99
2018-03-06T00:07:11.300Z,99.99
2018-03-06T00:08:21.997Z,99.99
2018-03-06T00:09:33.180Z,99.99
2018-03-06T00:10:45.199Z,99.99
2018-03-06T00:11:55.270Z,99.99
2018-03-06T00:13:05.354Z,99.99
2018-03-06T00:14:15.457Z,99.99
2018-03-06T00:15:25.582Z,99.99
2018-03-06T00:16:36.483Z,99.99
2018-03-06T00:17:47.536Z,99.99
2018-03-06T00:18:58.078Z,99.99
2018-03-06T00:20:11.768Z,99.99
2018-03-06T00:21:22.628Z,99.99
2018-03-06T00:22:32.742Z,99.99
2018-03-06T00:23:42.994Z,99.99
2018-03-06T00:24:53.696Z,99.99
2018-03-06T00:26:06.651Z,99.99
2018-03-06T00:27:19.359Z,99.99
2018-03-06T00:28:29.135Z,99.99
2018-03-06T00:29:38.618Z,99.99
2018-03-06T00:30:48.643Z,99.99
2018-03-06T00:31:58.426Z,99.99
2018-03-06T00:33:09.324Z,99.99
2018-03-06T00:34:21.186Z,99.99
2018-03-06T00:35:34.592Z,99.99
2018-03-06T00:36:47.476Z,99.99
2018-03-06T00:37:58.113Z,99.99
2018-03-06T00:39:07.907Z,99.99
2018-03-06T00:40:17.658Z,99.99
2018-03-06T00:41:28.661Z,99.99
2018-03-06T00:42:39.243Z,99.99
2018-03-06T00:43:51.329Z,99.99
2018-03-06T00:45:02.286Z,99.99
2018-03-06T00:46:12.341Z,99.99
2018-03-06T00:47:22.186Z,99.99
2018-03-06T00:48:32.929Z,99.99
2018-03-06T00:49:46.122Z,99.99
2018-03-06T00:50:58.557Z,99.99
2018-03-06T00:52:08.579Z,99.99
2018-03-06T00:53:18.645Z,99.99
2018-03-06T00:54:28.410Z,99.99
2018-03-06T00:55:39.490Z,99.99
2018-03-06T00:56:50.696Z,99.99
2018-03-06T00:58:04.283Z,99.99
2018-03-06T00:59:14.343Z,99.99
2018-03-06T01:00:24.464Z,99.99
2018-03-06T01:01:34.244Z,99.99
2018-03-06T01:02:43.744Z,99.99
2018-03-06T01:03:55.818Z,99.99
2018-03-06T01:05:08.920Z,99.99
2018-03-06T01:06:20.830Z,99.99
2018-03-06T01:07:30.863Z,99.99
2018-03-06T01:08:40.957Z,99.99
2018-03-06T01:09:51.027Z,99.99
2018-03-06T01:11:01.853Z,99.99
2018-03-06T01:12:13.524Z,99.99
2018-03-06T01:13:26.589Z,99.99
2018-03-06T01:14:36.928Z,99.99
2018-03-06T01:15:46.998Z,99.99
2018-03-06T01:16:57.284Z,99.99
2018-03-06T01:18:07.342Z,99.99
2018-03-06T01:19:18.201Z,99.99
2018-03-06T01:20:29.898Z,99.99
2018-03-06T01:21:43.512Z,99.99
2018-03-06T01:22:56.386Z,99.99
2018-03-06T01:24:06.441Z,99.99
2018-03-06T01:25:16.483Z,99.99
2018-03-06T01:26:26.248Z,99.99
2018-03-06T01:27:37.072Z,99.99
2018-03-06T01:28:49.356Z,99.99
2018-03-06T01:30:02.636Z,99.99
2018-03-06T01:31:12.685Z,99.99
2018-03-06T01:32:22.750Z,99.99
2018-03-06T01:33:32.827Z,99.99
2018-03-06T01:34:43.607Z,99.99
2018-03-06T01:35:57.178Z,99.99
2018-03-06T01:37:09.742Z,99.99
2018-03-06T01:38:20.026Z,99.99
2018-03-06T01:39:29.787Z,99.99
2018-03-06T01:40:40.309Z,99.99
2018-03-06T01:41:51.961Z,99.99
2018-03-06T01:43:04.739Z,99.99
2018-03-06T01:44:15.636Z,99.99
2018-03-06T01:45:25.428Z,99.99
2018-03-06T01:46:35.511Z,99.99
2018-03-06T01:47:46.289Z,99.99
2018-03-06T01:48:59.198Z,99.99
2018-03-06T01:50:11.327Z,99.99
2018-03-06T01:51:21.364Z,99.99
2018-03-06T01:52:31.126Z,99.99
2018-03-06T01:53:41.188Z,99.99
2018-03-06T01:54:51.526Z,99.99
2018-03-06T01:56:03.957Z,99.99
2018-03-06T01:57:16.950Z,99.99
2018-03-06T01:58:26.976Z,99.99
2018-03-06T01:59:36.966Z,99.99
2018-03-06T02:00:46.978Z,99.99
2018-03-06T02:01:57.946Z,99.99
2018-03-06T02:03:10.366Z,99.99
2018-03-06T02:04:23.781Z,99.99
2018-03-06T02:05:35.424Z,99.99
2018-03-06T02:06:44.737Z,99.99
2018-03-06T02:07:54.501Z,99.99
2018-03-06T02:09:04.278Z,99.99
2018-03-06T02:10:15.109Z,99.99
2018-03-06T02:11:28.565Z,99.99
2018-03-06T02:12:41.840Z,99.99
2018-03-06T02:13:51.898Z,99.99
2018-03-06T02:15:01.696Z,99.99
2018-03-06T02:16:11.740Z,99.99
2018-03-06T02:17:21.552Z,99.99
2018-03-06T02:18:31.816Z,99.99
2018-03-06T02:19:43.548Z,99.99
2018-03-06T02:20:56.790Z,99.99
2018-03-06T02:22:09.759Z,99.99
2018-03-06T02:23:19.826Z,99.99
2018-03-06T02:24:29.608Z,99.99
2018-03-06T02:25:39.651Z,99.99
2018-03-06T02:26:50.704Z,99.99
2018-03-06T02:28:01.671Z,99.99
2018-03-06T02:29:14.690Z,99.99
2018-03-06T02:30:26.429Z,99.99
2018-03-06T02:31:36.496Z,99.99
2018-03-06T02:32:46.291Z,99.99
2018-03-06T02:33:56.066Z,99.99
2018-03-06T02:35:05.820Z,99.99
2018-03-06T02:36:16.755Z,99.99
2018-03-06T02:37:29.567Z,99.99
2018-03-06T02:38:41.634Z,99.99
2018-03-06T02:39:52.488Z,99.99
2018-03-06T02:41:01.980Z,99.99
2018-03-06T02:42:12.028Z,99.99
2018-03-06T02:43:22.663Z,99.99
2018-03-06T02:44:35.254Z,99.99
2018-03-06T02:45:48.228Z,99.99
2018-03-06T02:46:58.950Z,99.99
2018-03-06T02:48:09.065Z,99.99
2018-03-06T02:49:19.081Z,99.99
2018-03-06T02:50:28.866Z,99.99
2018-03-06T02:51:38.612Z,99.99
2018-03-06T02:52:51.278Z,99.99
2018-03-06T02:54:04.579Z,99.99
2018-03-06T02:55:15.523Z,99.99
2018-03-06T02:56:25.296Z,99.99
2018-03-06T02:57:35.351Z,99.99
2018-03-06T02:58:46.369Z,99.99
2018-03-06T02:59:57.075Z,99.99
2018-03-06T03:01:09.280Z,99.99
2018-03-06T03:02:22.137Z,99.99
2018-03-06T03:03:31.907Z,99.99
2018-03-06T03:04:41.978Z,99.99
2018-03-06T03:05:51.753Z,99.99
2018-03-06T03:07:01.800Z,99.99
2018-03-06T03:08:12.665Z,99.99
2018-03-06T03:09:25.204Z,99.99
2018-03-06T03:10:38.762Z,99.99
2018-03-06T03:11:48.760Z,99.99
2018-03-06T03:12:58.254Z,99.99
2018-03-06T03:14:08.341Z,99.99
2018-03-06T03:15:18.118Z,99.99
2018-03-06T03:16:27.910Z,99.99
2018-03-06T03:17:38.687Z,99.99
2018-03-06T03:18:52.081Z,99.99
2018-03-06T03:20:04.279Z,99.99
2018-03-06T03:21:14.021Z,99.99
2018-03-06T03:22:24.065Z,99.99
2018-03-06T03:23:34.114Z,99.99
2018-03-06T03:24:44.690Z,99.99
2018-03-06T03:25:56.386Z,99.99
2018-03-06T03:27:09.627Z,99.99
2018-03-06T03:28:19.691Z,99.99
2018-03-06T03:29:29.728Z,99.99
2018-03-06T03:30:39.758Z,99.99
2018-03-06T03:31:52.636Z,99.99
2018-03-06T03:33:06.083Z,99.99
2018-03-06T03:34:16.109Z,99.99
2018-03-06T03:35:26.191Z,99.99
2018-03-06T03:36:35.946Z,99.99
2018-03-06T03:37:46.369Z,99.99
2018-03-06T03:38:59.192Z,99.99
2018-03-06T03:40:09.829Z,99.99
2018-03-06T03:41:19.903Z,99.99
2018-03-06T03:42:30.108Z,99.99
2018-03-06T03:43:40.750Z,99.99
2018-03-06T03:44:53.627Z,99.99
2018-03-06T03:46:05.523Z,99.99
2018-03-06T03:47:15.585Z,99.99
2018-03-06T03:48:25.399Z,99.99
2018-03-06T03:49:35.871Z,99.99
2018-03-06T03:50:48.861Z,99.99
2018-03-06T03:52:00.383Z,99.99
2018-03-06T03:53:10.161Z,99.99
2018-03-06T03:54:20.241Z,99.99
2018-03-06T03:55:30.318Z,99.99
2018-03-06T03:56:40.834Z,99.99
2018-03-06T03:57:53.043Z,99.99
2018-03-06T03:59:05.286Z,99.99
2018-03-06T04:00:15.329Z,99.99
2018-03-06T04:01:25.098Z,99.99
2018-03-06T04:02:34.839Z,99.99
2018-03-06T04:03:45.570Z,99.99
2018-03-06T04:04:58.261Z,99.99
2018-03-06T04:06:08.413Z,99.99
2018-03-06T04:07:19.420Z,99.99
2018-03-06T04:08:31.045Z,99.99
2018-03-06T04:09:43.261Z,99.99
2018-03-06T04:10:53.338Z,99.99
2018-03-06T04:12:03.440Z,99.99
2018-03-06T04:13:13.211Z,99.99
2018-03-06T04:14:23.642Z,99.99
2018-03-06T04:15:33.900Z,99.99
2018-03-06T04:16:47.362Z,99.99
2018-03-06T04:17:57.411Z,99.99
2018-03-06T04:19:07.452Z,99.99
2018-03-06T04:20:17.507Z,99.99
2018-03-06T04:21:28.301Z,99.99
2018-03-06T04:22:41.854Z,99.99
2018-03-06T04:23:54.388Z,99.99
2018-03-06T04:25:04.153Z,99.99
2018-03-06T04:26:13.916Z,99.99
2018-03-06T04:27:23.925Z,99.99
2018-03-06T04:28:33.425Z,99.99
2018-03-06T04:29:45.881Z,99.99
2018-03-06T04:30:59.225Z,99.99
2018-03-06T04:32:11.113Z,99.99
2018-03-06T04:33:21.169Z,99.99
2018-03-06T04:34:31.459Z,99.99
2018-03-06T04:35:42.476Z,99.99
2018-03-06T04:36:54.731Z,99.99
2018-03-06T04:38:08.113Z,99.99
2018-03-06T04:39:17.591Z,99.99
2018-03-06T04:40:27.657Z,99.99
2018-03-06T04:41:37.699Z,99.99
2018-03-06T04:42:48.545Z,99.99
2018-03-06T04:43:59.504Z,99.99
2018-03-06T04:45:11.651Z,99.99
2018-03-06T04:46:23.160Z,99.99
2018-03-06T04:47:33.105Z,99.99
2018-03-06T04:48:43.148Z,99.99
2018-03-06T04:49:53.896Z,99.99
2018-03-06T04:51:04.689Z,99.99
2018-03-06T04:52:18.036Z,99.99
2018-03-06T04:53:30.460Z,99.99
2018-03-06T04:54:40.232Z,99.99
2018-03-06T04:55:50.255Z,99.99
2018-03-06T04:57:00.318Z,99.99
2018-03-06T04:58:10.334Z,99.99
2018-03-06T04:59:21.211Z,99.99
2018-03-06T05:00:32.921Z,99.99
2018-03-06T05:01:46.113Z,99.99
2018-03-06T05:02:55.943Z,99.99
2018-03-06T05:04:06.079Z,99.99
2018-03-06T05:05:16.107Z,99.99
2018-03-06T05:06:26.424Z,99.99
2018-03-06T05:07:37.022Z,99.99
2018-03-06T05:08:48.540Z,99.99
2018-03-06T05:10:00.938Z,99.99
2018-03-06T05:11:12.638Z,99.99
2018-03-06T05:12:22.687Z,99.99
2018-03-06T05:13:32.462Z,99.99
2018-03-06T05:14:45.440Z,99.99
2018-03-06T05:15:57.272Z,99.99
2018-03-06T05:17:07.323Z,99.99
2018-03-06T05:18:17.374Z,99.99
2018-03-06T05:19:27.415Z,99.99
2018-03-06T05:20:37.754Z,99.99
2018-03-06T05:21:48.074Z,99.99
2018-03-06T05:23:01.263Z,99.99
2018-03-06T05:24:12.393Z,99.99
2018-03-06T05:25:22.152Z,99.99
2018-03-06T05:26:32.273Z,99.99
2018-03-06T05:27:42.602Z,99.99
2018-03-06T05:28:52.350Z,99.99
2018-03-06T05:30:02.416Z,99.99
2018-03-06T05:31:13.168Z,99.99
2018-03-06T05:32:25.441Z,99.99
2018-03-06T05:33:38.441Z,99.99
2018-03-06T05:34:48.493Z,99.99
2018-03-06T05:35:58.264Z,99.99
2018-03-06T05:37:08.338Z,99.99
2018-03-06T05:38:18.452Z,99.99
2018-03-06T05:39:29.101Z,99.99
2018-03-06T05:40:40.653Z,99.99
2018-03-06T05:41:53.028Z,99.99
2018-03-06T05:43:05.220Z,99.99
2018-03-06T05:44:16.258Z,99.99
2018-03-06T05:45:26.306Z,99.99
2018-03-06T05:46:36.048Z,99.99
2018-03-06T05:47:46.083Z,99.99
2018-03-06T05:48:57.116Z,99.99
2018-03-06T05:50:08.741Z,99.99
2018-03-06T05:51:21.710Z,99.99
2018-03-06T05:52:32.190Z,99.99
2018-03-06T05:53:42.374Z,99.99
2018-03-06T05:54:52.116Z,99.99
2018-03-06T05:56:02.173Z,99.99
2018-03-06T05:57:11.930Z,99.99
2018-03-06T05:58:22.565Z,99.99
2018-03-06T05:59:34.959Z,99.99
2018-03-06T06:00:47.334Z,99.99
2018-03-06T06:01:58.779Z,99.99
2018-03-06T06:03:08.852Z,99.99
2018-03-06T06:04:18.896Z,99.99
2018-03-06T06:05:29.991Z,99.99
2018-03-06T06:06:41.506Z,99.99
2018-03-06T06:07:53.931Z,99.99
2018-03-06T06:09:04.013Z,99.99
2018-03-06T06:10:14.535Z,99.99
2018-03-06T06:11:27.439Z,99.99
2018-03-06T06:12:40.493Z,99.99
2018-03-06T06:13:50.256Z,99.99
2018-03-06T06:15:00.221Z,99.99
2018-03-06T06:16:10.242Z,99.99
2018-03-06T06:17:20.213Z,99.99
2018-03-06T06:18:29.917Z,99.99
2018-03-06T06:19:39.620Z,99.99
2018-03-06T06:20:49.321Z,99.99
2018-03-06T06:21:59.412Z,99.99
2018-03-06T06:23:09.388Z,99.99
2018-03-06T06:24:19.377Z,99.99
2018-03-06T06:25:29.151Z,99.99
2018-03-06T06:26:38.326Z,99.99
2018-03-06T06:27:48.295Z,99.99
2018-03-06T06:28:58.298Z,99.99
2018-03-06T06:30:08.316Z,99.99
2018-03-06T06:31:18.286Z,99.99
2018-03-06T06:32:28.336Z,99.99
2018-03-06T06:33:38.448Z,99.99
2018-03-06T06:34:48.164Z,99.99
2018-03-06T06:35:57.871Z,99.99
2018-03-06T06:37:07.828Z,99.99
2018-03-06T06:38:17.531Z,99.99
2018-03-06T06:39:27.488Z,99.99
2018-03-06T06:40:37.444Z,99.99
2018-03-06T06:41:47.148Z,99.99
2018-03-06T06:42:57.109Z,99.99
2018-03-06T06:44:06.842Z,99.99
2018-03-06T06:45:16.548Z,99.99
2018-03-06T06:46:26.247Z,99.99
2018-03-06T06:47:36.326Z,99.99
2018-03-06T06:48:46.028Z,99.99
2018-03-06T06:49:55.984Z,99.99
2018-03-06T06:51:05.943Z,99.99
2018-03-06T06:52:15.656Z,99.99
2018-03-06T06:53:25.098Z,99.99
2018-03-06T06:54:34.801Z,99.99
2018-03-06T06:55:44.750Z,99.99
2018-03-06T06:56:54.710Z,99.99
2018-03-06T06:58:04.664Z,99.99
2018-03-06T06:59:14.620Z,99.99
2018-03-06T07:00:24.070Z,99.99
2018-03-06T07:01:33.794Z,99.99
2018-03-06T07:02:43.752Z,99.99
2018-03-06T07:03:53.733Z,99.99
2018-03-06T07:05:03.429Z,99.99
2018-03-06T07:06:13.395Z,99.99
2018-03-06T07:07:22.838Z,99.99
2018-03-06T07:08:32.285Z,99.99
2018-03-06T07:09:42.261Z,99.99
2018-03-06T07:10:52.019Z,99.99
2018-03-06T07:12:01.748Z,99.99
2018-03-06T07:13:11.714Z,99.99
2018-03-06T07:14:21.763Z,99.99
2018-03-06T07:15:31.456Z,99.99
2018-03-06T07:16:41.421Z,99.99
2018-03-06T07:17:50.612Z,99.99
2018-03-06T07:19:00.049Z,99.99
2018-03-06T07:20:09.491Z,99.99
2018-03-06T07:21:19.018Z,99.99
2018-03-06T07:22:28.742Z,99.99
2018-03-06T07:23:38.157Z,99.99
2018-03-06T07:24:48.143Z,99.99
2018-03-06T07:25:57.854Z,99.99
2018-03-06T07:27:07.553Z,99.99
2018-03-06T07:28:17.513Z,99.99
2018-03-06T07:29:27.213Z,99.99
2018-03-06T07:30:36.937Z,99.99
2018-03-06T07:31:46.645Z,99.99
2018-03-06T07:32:56.421Z,99.99
2018-03-06T07:34:06.121Z,99.99
2018-03-06T07:35:16.146Z,99.99
2018-03-06T07:36:26.107Z,99.99
2018-03-06T07:37:36.060Z,99.99
2018-03-06T07:38:45.497Z,99.99
2018-03-06T07:39:55.461Z,99.99
2018-03-06T07:41:05.420Z,99.99
2018-03-06T07:42:15.415Z,99.99
2018-03-06T07:43:25.430Z,99.99
2018-03-06T07:44:35.388Z,99.99
2018-03-06T07:45:44.840Z,99.99
2018-03-06T07:46:54.804Z,99.99
2018-03-06T07:48:04.560Z,99.99
2018-03-06T07:49:14.271Z,99.99
2018-03-06T07:50:23.990Z,99.99
2018-03-06T07:51:33.968Z,99.99
2018-03-06T07:52:43.692Z,99.99
2018-03-06T07:53:53.402Z,99.99
2018-03-06T07:55:02.861Z,99.99
2018-03-06T07:56:12.587Z,99.99
2018-03-06T07:57:22.295Z,99.99
2018-03-06T07:58:32.256Z,99.99
2018-03-06T07:59:42.215Z,99.99
2018-03-06T08:00:52.166Z,99.99
2018-03-06T08:02:01.885Z,99.99
2018-03-06T08:03:11.851Z,99.99
2018-03-06T08:04:21.828Z,99.99
2018-03-06T08:05:31.275Z,99.99
2018-03-06T08:06:40.986Z,99.99
2018-03-06T08:07:50.697Z,99.99
2018-03-06T08:09:00.396Z,99.99
2018-03-06T08:10:10.457Z,99.99
2018-03-06T08:11:19.665Z,99.99
2018-03-06T08:12:29.362Z,99.99
2018-03-06T08:13:39.414Z,99.99
2018-03-06T08:14:49.364Z,99.99
2018-03-06T08:15:59.086Z,99.99
2018-03-06T08:17:09.049Z,99.99
2018-03-06T08:18:19.015Z,99.99
2018-03-06T08:19:28.980Z,99.99
2018-03-06T08:20:39.138Z,99.99
2018-03-06T08:21:49.119Z,99.99
2018-03-06T08:22:59.346Z,99.99
2018-03-06T08:24:09.047Z,99.66
2018-03-06T08:25:18.764Z,99.85
2018-03-06T08:26:28.523Z,99.66
2018-03-06T08:27:38.716Z,99.01
2018-03-06T08:28:48.493Z,98.3
2018-03-06T08:29:58.023Z,98.3
2018-03-06T08:31:07.748Z,97.35
2018-03-06T08:32:17.674Z,97.82
2018-03-06T08:33:27.608Z,96.78
2018-03-06T08:34:37.125Z,97.16
2018-03-06T08:35:46.522Z,96.97
2018-03-06T08:36:56.217Z,95.64
2018-03-06T08:38:06.207Z,95.36
2018-03-06T08:39:16.071Z,94.98
2018-03-06T08:40:25.919Z,94.79
2018-03-06T08:41:35.636Z,94.51
2018-03-06T08:42:45.611Z,94.79
2018-03-06T08:43:55.573Z,94.84
2018-03-06T08:45:05.289Z,95.31
2018-03-06T08:46:15.009Z,95.79
2018-03-06T08:47:24.466Z,94.18
2018-03-06T08:48:34.200Z,94.56
2018-03-06T08:49:43.946Z,94.27
2018-03-06T08:50:54.027Z,93.8
2018-03-06T08:52:04.013Z,93.7
2018-03-06T08:53:14.001Z,93.7
2018-03-06T08:54:23.977Z,93.42
2018-03-06T08:55:33.976Z,93.61
2018-03-06T08:56:43.935Z,92.94
2018-03-06T08:57:53.898Z,93.8
2018-03-06T08:59:04.117Z,93.89
2018-03-06T09:00:13.829Z,93.7
2018-03-06T09:01:23.798Z,93.04
2018-03-06T09:02:33.770Z,92.66
2018-03-06T09:03:43.796Z,92.28
2018-03-06T09:04:53.770Z,92.47
2018-03-06T09:06:03.476Z,92.38
2018-03-06T09:07:13.189Z,91.33
2018-03-06T09:08:22.944Z,91.14
2018-03-06T09:09:32.922Z,91.09
2018-03-06T09:10:42.665Z,90.53
2018-03-06T09:11:52.642Z,90.81
2018-03-06T09:13:02.608Z,89.96
2018-03-06T09:14:12.576Z,89.11
2018-03-06T09:15:22.541Z,88.63
2018-03-06T09:16:32.522Z,88.44
2018-03-06T09:17:42.502Z,88.44
2018-03-06T09:18:51.958Z,88.35
2018-03-06T09:20:01.957Z,88.25
2018-03-06T09:21:11.958Z,88.54
2018-03-06T09:22:21.922Z,88.63
2018-03-06T09:23:31.938Z,87.49
2018-03-06T09:24:42.171Z,87.06
2018-03-06T09:25:52.180Z,87.12
2018-03-06T09:27:02.192Z,86.83
2018-03-06T09:28:11.643Z,86.64
2018-03-06T09:29:21.628Z,86.74
2018-03-06T09:30:31.358Z,86.45
2018-03-06T09:31:41.057Z,86.68
2018-03-06T09:32:51.034Z,85.55
2018-03-06T09:34:00.764Z,85.45
2018-03-06T09:35:10.745Z,84.31
2018-03-06T09:36:19.946Z,84.22
2018-03-06T09:37:29.712Z,84.31
2018-03-06T09:38:39.192Z,85.55
2018-03-06T09:39:48.404Z,84.88
2018-03-06T09:40:58.145Z,84.41
2018-03-06T09:42:07.850Z,83.94
2018-03-06T09:43:17.552Z,83.46
2018-03-06T09:44:27.508Z,83.94
2018-03-06T09:45:37.496Z,83.55
2018-03-06T09:46:47.483Z,83.65
2018-03-06T09:47:57.223Z,82.93
2018-03-06T09:49:07.239Z,81.79
2018-03-06T09:50:17.227Z,81.51
2018-03-06T09:51:27.220Z,81.13
2018-03-06T09:52:36.672Z,80.56
2018-03-06T09:53:46.660Z,80.94
2018-03-06T09:54:56.632Z,79.8
2018-03-06T09:56:06.624Z,79.84
2018-03-06T09:57:16.597Z,80.51
2018-03-06T09:58:26.573Z,79.55
2018-03-06T09:59:36.539Z,79.08
2018-03-06T10:00:46.240Z,78.99
2018-03-06T10:01:55.951Z,80.13
2018-03-06T10:03:05.905Z,79.46
2018-03-06T10:04:15.884Z,79.08
2018-03-06T10:05:25.880Z,78.61
2018-03-06T10:06:35.850Z,79.08
2018-03-06T10:07:45.850Z,78.89
2018-03-06T10:08:55.817Z,78.13
2018-03-06T10:10:05.797Z,78.51
2018-03-06T10:11:15.807Z,78.61
2018-03-06T10:12:25.794Z,80.65
2018-03-06T10:13:35.770Z,80.46
2018-03-06T10:14:45.494Z,79.74
2018-03-06T10:15:55.223Z,78.03
2018-03-06T10:17:04.935Z,78.61
2018-03-06T10:18:14.374Z,78.8
2018-03-06T10:19:24.380Z,78.89
2018-03-06T10:20:34.422Z,79.08
2018-03-06T10:21:44.405Z,78.42
2018-03-06T10:22:54.369Z,78.23
2018-03-06T10:24:04.336Z,78.13
2018-03-06T10:25:14.057Z,77.94
2018-03-06T10:26:24.020Z,78.23
2018-03-06T10:27:34.006Z,78.23
2018-03-06T10:28:43.981Z,78.23
2018-03-06T10:29:53.954Z,77.6
2018-03-06T10:31:03.668Z,76.56
2018-03-06T10:32:13.635Z,76.75
2018-03-06T10:33:23.625Z,77.31
2018-03-06T10:34:33.389Z,76.08
2018-03-06T10:35:43.621Z,76.46
2018-03-06T10:36:53.598Z,76.08
2018-03-06T10:38:03.318Z,75.51
2018-03-06T10:39:13.034Z,75.23
2018-03-06T10:40:23.017Z,75.32
2018-03-06T10:41:32.797Z,74.94
2018-03-06T10:42:42.260Z,75.04
2018-03-06T10:43:52.568Z,75.23
2018-03-06T10:45:02.608Z,75.79
2018-03-06T10:46:12.605Z,75.42
2018-03-06T10:47:22.103Z,75.42
2018-03-06T10:48:32.379Z,74.22
2018-03-06T10:49:42.391Z,72.79
2018-03-06T10:50:52.378Z,72.32
2018-03-06T10:52:02.373Z,73.02
2018-03-06T10:53:12.430Z,71.94
2018-03-06T10:54:22.521Z,71.59
2018-03-06T10:55:32.528Z,71.12
2018-03-06T10:56:41.993Z,70.93
2018-03-06T10:57:52.002Z,70.83
2018-03-06T10:59:01.725Z,70.74
2018-03-06T11:00:11.464Z,71.31
2018-03-06T11:01:21.470Z,72.16
2018-03-06T11:02:31.467Z,71.69
2018-03-06T11:03:41.471Z,71.12
2018-03-06T11:04:51.483Z,70.17
2018-03-06T11:06:01.588Z,69.21
2018-03-06T11:07:11.591Z,69.25
2018-03-06T11:08:21.659Z,69.02
2018-03-06T11:09:31.721Z,69.02
2018-03-06T11:10:41.795Z,69.63
2018-03-06T11:11:52.052Z,70.17
2018-03-06T11:13:02.103Z,69.54
2018-03-06T11:14:11.886Z,69.6
2018-03-06T11:15:22.086Z,69.21
2018-03-06T11:16:32.081Z,69.06
2018-03-06T11:17:42.093Z,68.49
2018-03-06T11:18:52.081Z,68.01
2018-03-06T11:20:01.812Z,67.44
2018-03-06T11:21:11.294Z,68.11
2018-03-06T11:22:20.764Z,69.69
2018-03-06T11:23:30.274Z,69.69
2018-03-06T11:24:40.052Z,69.31
2018-03-06T11:25:49.875Z,68.74
2018-03-06T11:26:59.665Z,68.11
2018-03-06T11:28:09.710Z,68.21
2018-03-06T11:29:19.469Z,68.3
2018-03-06T11:30:29.460Z,69.12
2018-03-06T11:31:39.420Z,69.69
2018-03-06T11:32:49.418Z,70.36
2018-03-06T11:33:59.667Z,70.64
2018-03-06T11:35:09.708Z,70.36
2018-03-06T11:36:19.704Z,70.83
2018-03-06T11:37:29.436Z,70.83
2018-03-06T11:38:39.250Z,71.02
2018-03-06T11:39:49.004Z,71.41
2018-03-06T11:40:59.014Z,71.37
2018-03-06T11:42:09.033Z,71.08
2018-03-06T11:43:18.775Z,71.08
2018-03-06T11:44:28.786Z,71.59
2018-03-06T11:45:38.287Z,70.64
2018-03-06T11:46:48.324Z,70.45
2018-03-06T11:47:58.328Z,70.36
2018-03-06T11:49:08.295Z,70.07
2018-03-06T11:50:18.308Z,69.98
2018-03-06T11:51:28.293Z,70.54
2018-03-06T11:52:38.298Z,70.07
2018-03-06T11:53:48.286Z,70.54
2018-03-06T11:54:58.066Z,71.12
2018-03-06T11:56:08.086Z,71.27
2018-03-06T11:57:18.091Z,70.79
2018-03-06T11:58:27.802Z,71.08
2018-03-06T11:59:37.786Z,70.64
2018-03-06T12:00:47.759Z,70.64
2018-03-06T12:01:57.815Z,70.26
2018-03-06T12:03:08.019Z,69.98
2018-03-06T12:04:18.027Z,70.07
2018-03-06T12:05:27.754Z,71.31
2018-03-06T12:06:37.499Z,70.45
2018-03-06T12:07:46.956Z,70.36
2018-03-06T12:08:56.677Z,70.32
2018-03-06T12:10:06.510Z,70.7
2018-03-06T12:11:16.242Z,70.7
2018-03-06T12:12:25.962Z,70.7
2018-03-06T12:13:36.042Z,70.89
2018-03-06T12:14:45.763Z,71.27
2018-03-06T12:15:55.715Z,71.27
2018-03-06T12:17:05.734Z,70.83
2018-03-06T12:18:15.768Z,70.17
2018-03-06T12:19:25.767Z,69.21
2018-03-06T12:20:35.504Z,69.41
2018-03-06T12:21:45.465Z,69.31
2018-03-06T12:22:55.443Z,68.84
2018-03-06T12:24:05.198Z,68.3
2018-03-06T12:25:14.927Z,68.55
2018-03-06T12:26:24.633Z,68.27
2018-03-06T12:27:34.614Z,67.88
2018-03-06T12:28:44.597Z,68.74
2018-03-06T12:29:54.627Z,68.55
2018-03-06T12:31:04.604Z,69.12
2018-03-06T12:32:14.581Z,69.88
2018-03-06T12:33:24.577Z,70.13
2018-03-06T12:34:34.042Z,70.32
2018-03-06T12:35:44.035Z,70.04
2018-03-06T12:36:54.110Z,70.51
2018-03-06T12:38:03.599Z,71.37
2018-03-06T12:39:13.803Z,70.7
2018-03-06T12:40:23.523Z,70.79
2018-03-06T12:41:33.256Z,71.27
2018-03-06T12:42:43.248Z,71.46
2018-03-06T12:43:53.011Z,71.46
2018-03-06T12:45:02.989Z,70.42
2018-03-06T12:46:13.004Z,70.89
2018-03-06T12:47:22.988Z,70.79
2018-03-06T12:48:32.963Z,70.99
2018-03-06T12:49:42.719Z,70.79
2018-03-06T12:50:52.432Z,71.18
2018-03-06T12:52:02.215Z,71.18
2018-03-06T12:53:12.195Z,70.7
2018-03-06T12:54:22.190Z,70.79
2018-03-06T12:55:32.244Z,70.61
2018-03-06T12:56:42.454Z,70.89
2018-03-06T12:57:52.426Z,70.79
2018-03-06T12:59:02.454Z,70.51
2018-03-06T13:00:12.508Z,70.32
2018-03-06T13:01:22.239Z,69.94
2018-03-06T13:02:32.307Z,70.74
2018-03-06T13:03:42.277Z,70.42
2018-03-06T13:04:52.243Z,70.51
2018-03-06T13:06:01.966Z,70.61
2018-03-06T13:07:12.011Z,70.42
2018-03-06T13:08:21.997Z,71.02
2018-03-06T13:09:32.027Z,70.36
2018-03-06T13:10:42.000Z,68.93
2018-03-06T13:11:52.033Z,68.93
2018-03-06T13:13:02.008Z,69.88
2018-03-06T13:14:12.020Z,69.79
2018-03-06T13:15:22.016Z,69.69
2018-03-06T13:16:32.244Z,70.07
2018-03-06T13:17:42.242Z,70.64
2018-03-06T13:18:52.123Z,69.85
2018-03-06T13:20:02.187Z,69.98
2018-03-06T13:21:12.588Z,69.41
2018-03-06T13:22:22.577Z,69.12
2018-03-06T13:23:32.652Z,67.79
2018-03-06T13:24:42.414Z,67.79
2018-03-06T13:25:52.392Z,67.25
2018-03-06T13:27:02.362Z,67.44
2018-03-06T13:28:12.334Z,68.07
2018-03-06T13:29:22.122Z,67.88
2018-03-06T13:30:31.585Z,67.41
2018-03-06T13:31:41.053Z,67.32
2018-03-06T13:32:51.020Z,69.21
2018-03-06T13:34:00.280Z,69.41
2018-03-06T13:35:10.447Z,69.79
2018-03-06T13:36:20.167Z,69.02
2018-03-06T13:37:29.896Z,68.46
2018-03-06T13:38:39.624Z,69.41
2018-03-06T13:39:49.765Z,69.5
2018-03-06T13:40:59.858Z,68.99
2018-03-06T13:42:09.586Z,69.21
2018-03-06T13:43:19.363Z,68.27
2018-03-06T13:44:29.378Z,68.55
2018-03-06T13:45:39.361Z,69.31
2018-03-06T13:46:49.330Z,69.12
2018-03-06T13:47:59.305Z,69.21
2018-03-06T13:49:09.016Z,69.37
2018-03-06T13:50:19.014Z,70.23
2018-03-06T13:51:29.030Z,69.37
2018-03-06T13:52:39.057Z,68.99
2018-03-06T13:53:48.517Z,68.65
2018-03-06T13:54:58.051Z,69.12
2018-03-06T13:56:07.831Z,68.07
2018-03-06T13:57:17.482Z,68.36
2018-03-06T13:58:26.952Z,69.02
2018-03-06T13:59:36.674Z,68.99
2018-03-06T14:00:46.144Z,69.37
2018-03-06T14:01:55.632Z,69.27
2018-03-06T14:03:05.820Z,69.94
2018-03-06T14:04:15.812Z,70.04
2018-03-06T14:05:25.254Z,70.61
2018-03-06T14:06:35.243Z,70.99
2018-03-06T14:07:45.235Z,70.04
2018-03-06T14:08:55.209Z,69.94
2018-03-06T14:10:04.660Z,70.23
2018-03-06T14:11:13.905Z,70.42
2018-03-06T14:12:23.603Z,70.13
2018-03-06T14:13:33.314Z,70.04
2018-03-06T14:14:43.040Z,70.61
2018-03-06T14:15:53.019Z,70.95
2018-03-06T14:17:02.780Z,71.04
2018-03-06T14:18:12.771Z,70.86
2018-03-06T14:19:22.488Z,71.43
2018-03-06T14:20:32.460Z,71.9
2018-03-06T14:21:42.435Z,72
2018-03-06T14:22:52.158Z,71.33
2018-03-06T14:24:02.113Z,71.23
2018-03-06T14:25:11.814Z,72
2018-03-06T14:26:21.504Z,72.66
2018-03-06T14:27:31.180Z,72.47
2018-03-06T14:28:40.606Z,72
2018-03-06T14:29:50.048Z,71.33
2018-03-06T14:30:59.487Z,71.33
2018-03-06T14:32:09.198Z,72.09
2018-03-06T14:33:19.262Z,72.47
2018-03-06T14:34:29.245Z,73.52
2018-03-06T14:35:38.967Z,73.29
2018-03-06T14:36:48.413Z,73.19
2018-03-06T14:37:58.408Z,73.99
2018-03-06T14:39:08.141Z,73.57
2018-03-06T14:40:17.876Z,72.91
2018-03-06T14:41:27.852Z,73.38
2018-03-06T14:42:37.832Z,74.15
2018-03-06T14:43:47.533Z,74.24
2018-03-06T14:44:57.251Z,74.62
2018-03-06T14:46:07.206Z,74.52
2018-03-06T14:47:16.910Z,75.67
2018-03-06T14:48:26.613Z,75.85
2018-03-06T14:49:36.372Z,75.85
2018-03-06T14:50:46.077Z,76.71
2018-03-06T14:51:56.057Z,75.67
2018-03-06T14:53:05.791Z,76.23
2018-03-06T14:54:15.493Z,76.71
2018-03-06T14:55:25.456Z,76.14
2018-03-06T14:56:35.416Z,76.23
2018-03-06T14:57:45.391Z,77.71
2018-03-06T14:58:55.346Z,77.43
2018-03-06T15:00:05.076Z,78.56
2018-03-06T15:01:14.793Z,78.19
2018-03-06T15:02:24.782Z,78.38
2018-03-06T15:03:34.741Z,79.42
2018-03-06T15:04:44.726Z,78.09
2018-03-06T15:05:54.679Z,78.47